sensor_id;sensor_type;location;lat;lon;timestamp;temperature;humidity
67974;DHT22;54756;51.140;6.952;2023-05-07T00:00:40;14.50;99.90
67974;DHT22;54756;51.140;6.952;2023-05-07T00:02:41;14.50;99.90
67974;DHT22;54756;51.140;6.952;2023-05-07T00:04:41;14.50;99.90
67974;DHT22;54756;51.140;6.952;2023-05-07T00:06:42;14.40;99.90
67974;DHT22;54756;51.140;6.952;2023-05-07T00:08:42;14.50;99.90
67974;DHT22;54756;51.140;6.952;2023-05-07T00:10:43;14.40;99.90
67974;DHT22;54756;51.140;6.952;2023-05-07T00:12:44;14.40;99.90
67974;DHT22;54756;51.140;6.952;2023-05-07T00:14:44;14.50;99.90
67974;DHT22;54756;51.140;6.952;2023-05-07T00:16:45;14.50;99.90
67974;DHT22;54756;51.140;6.952;2023-05-07T00:18:46;14.50;99.90
67974;DHT22;54756;51.140;6.952;2023-05-07T00:20:46;14.50;99.90
67974;DHT22;54756;51.140;6.952;2023-05-07T00:22:47;14.50;99.90
67974;DHT22;54756;51.140;6.952;2023-05-07T00:24:48;14.50;99.90
67974;DHT22;54756;51.140;6.952;2023-05-07T00:26:48;14.50;99.90
67974;DHT22;54756;51.140;6.952;2023-05-07T00:28:49;14.40;99.90
67974;DHT22;54756;51.140;6.952;2023-05-07T00:30:50;14.40;99.90
67974;DHT22;54756;51.140;6.952;2023-05-07T00:32:50;14.30;99.90
67974;DHT22;54756;51.140;6.952;2023-05-07T00:34:51;14.30;99.90
67974;DHT22;54756;51.140;6.952;2023-05-07T00:36:51;14.20;99.90
67974;DHT22;54756;51.140;6.952;2023-05-07T00:38:53;14.20;99.90
67974;DHT22;54756;51.140;6.952;2023-05-07T00:40:53;14.10;99.90
67974;DHT22;54756;51.140;6.952;2023-05-07T00:42:54;14.10;99.90
67974;DHT22;54756;51.140;6.952;2023-05-07T00:44:57;14.10;99.90
67974;DHT22;54756;51.140;6.952;2023-05-07T00:46:58;14.10;99.90
67974;DHT22;54756;51.140;6.952;2023-05-07T00:48:59;14.10;99.90
67974;DHT22;54756;51.140;6.952;2023-05-07T00:51:00;14.00;99.90
67974;DHT22;54756;51.140;6.952;2023-05-07T00:53:00;14.00;99.90
67974;DHT22;54756;51.140;6.952;2023-05-07T00:55:05;14.00;99.90
67974;DHT22;54756;51.140;6.952;2023-05-07T00:57:06;14.00;99.90
67974;DHT22;54756;51.140;6.952;2023-05-07T00:59:07;14.10;99.90
67974;DHT22;54756;51.140;6.952;2023-05-07T01:01:08;14.10;99.90
67974;DHT22;54756;51.140;6.952;2023-05-07T01:03:08;14.10;99.90
67974;DHT22;54756;51.140;6.952;2023-05-07T01:05:11;14.10;99.90
67974;DHT22;54756;51.140;6.952;2023-05-07T01:07:12;14.10;99.90
67974;DHT22;54756;51.140;6.952;2023-05-07T01:09:13;14.00;99.90
67974;DHT22;54756;51.140;6.952;2023-05-07T01:11:14;14.00;99.90
67974;DHT22;54756;51.140;6.952;2023-05-07T01:13:16;14.00;99.90
67974;DHT22;54756;51.140;6.952;2023-05-07T01:15:17;14.00;99.90
67974;DHT22;54756;51.140;6.952;2023-05-07T01:17:17;14.00;99.90
67974;DHT22;54756;51.140;6.952;2023-05-07T01:19:18;14.00;99.90
67974;DHT22;54756;51.140;6.952;2023-05-07T01:21:24;14.00;99.90
67974;DHT22;54756;51.140;6.952;2023-05-07T01:23:25;14.00;99.90
67974;DHT22;54756;51.140;6.952;2023-05-07T01:25:28;14.00;99.90
67974;DHT22;54756;51.140;6.952;2023-05-07T01:27:29;14.00;99.90
67974;DHT22;54756;51.140;6.952;2023-05-07T01:29:30;14.00;99.90
67974;DHT22;54756;51.140;6.952;2023-05-07T01:31:30;14.00;99.90
67974;DHT22;54756;51.140;6.952;2023-05-07T01:33:34;14.00;99.90
67974;DHT22;54756;51.140;6.952;2023-05-07T01:35:48;14.00;99.90
67974;DHT22;54756;51.140;6.952;2023-05-07T01:37:49;14.00;99.90
67974;DHT22;54756;51.140;6.952;2023-05-07T01:39:50;13.90;99.90
67974;DHT22;54756;51.140;6.952;2023-05-07T01:41:51;13.90;99.90
67974;DHT22;54756;51.140;6.952;2023-05-07T01:43:54;13.90;99.90
67974;DHT22;54756;51.140;6.952;2023-05-07T01:45:55;13.90;99.90
67974;DHT22;54756;51.140;6.952;2023-05-07T01:47:58;13.90;99.90
67974;DHT22;54756;51.140;6.952;2023-05-07T01:49:59;13.90;99.90
67974;DHT22;54756;51.140;6.952;2023-05-07T01:52:00;13.90;99.90
67974;DHT22;54756;51.140;6.952;2023-05-07T01:54:01;13.80;99.90
67974;DHT22;54756;51.140;6.952;2023-05-07T01:56:01;13.80;99.90
67974;DHT22;54756;51.140;6.952;2023-05-07T01:58:02;13.80;99.90
67974;DHT22;54756;51.140;6.952;2023-05-07T02:00:03;13.80;99.90
67974;DHT22;54756;51.140;6.952;2023-05-07T02:02:05;13.80;99.90
67974;DHT22;54756;51.140;6.952;2023-05-07T02:04:05;13.70;99.90
67974;DHT22;54756;51.140;6.952;2023-05-07T02:06:06;13.70;99.90
67974;DHT22;54756;51.140;6.952;2023-05-07T02:08:07;13.70;99.90
67974;DHT22;54756;51.140;6.952;2023-05-07T02:10:07;13.60;99.90
67974;DHT22;54756;51.140;6.952;2023-05-07T02:12:08;13.60;99.90
67974;DHT22;54756;51.140;6.952;2023-05-07T02:14:08;13.60;99.90
67974;DHT22;54756;51.140;6.952;2023-05-07T02:16:09;13.60;99.90
67974;DHT22;54756;51.140;6.952;2023-05-07T02:18:11;13.60;99.90
67974;DHT22;54756;51.140;6.952;2023-05-07T02:20:11;13.60;99.90
67974;DHT22;54756;51.140;6.952;2023-05-07T02:22:13;13.60;99.90
67974;DHT22;54756;51.140;6.952;2023-05-07T02:24:14;13.60;99.90
67974;DHT22;54756;51.140;6.952;2023-05-07T02:26:14;13.50;99.90
67974;DHT22;54756;51.140;6.952;2023-05-07T02:28:15;13.50;99.90
67974;DHT22;54756;51.140;6.952;2023-05-07T02:30:15;13.50;99.90
67974;DHT22;54756;51.140;6.952;2023-05-07T02:32:16;13.40;99.90
67974;DHT22;54756;51.140;6.952;2023-05-07T02:34:17;13.30;99.90
67974;DHT22;54756;51.140;6.952;2023-05-07T02:36:17;13.30;99.90
67974;DHT22;54756;51.140;6.952;2023-05-07T02:38:18;13.20;99.90
67974;DHT22;54756;51.140;6.952;2023-05-07T02:40:18;13.20;99.90
67974;DHT22;54756;51.140;6.952;2023-05-07T02:42:19;13.10;99.90
67974;DHT22;54756;51.140;6.952;2023-05-07T02:44:19;13.00;99.90
67974;DHT22;54756;51.140;6.952;2023-05-07T02:46:20;12.90;99.90
67974;DHT22;54756;51.140;6.952;2023-05-07T02:48:20;12.80;99.90
67974;DHT22;54756;51.140;6.952;2023-05-07T02:50:21;12.70;99.90
67974;DHT22;54756;51.140;6.952;2023-05-07T02:52:22;12.60;99.90
67974;DHT22;54756;51.140;6.952;2023-05-07T02:54:22;12.60;99.90
67974;DHT22;54756;51.140;6.952;2023-05-07T02:56:26;12.50;99.90
67974;DHT22;54756;51.140;6.952;2023-05-07T02:58:26;12.40;99.90
67974;DHT22;54756;51.140;6.952;2023-05-07T03:00:27;12.40;99.90
67974;DHT22;54756;51.140;6.952;2023-05-07T03:02:28;12.40;99.90
67974;DHT22;54756;51.140;6.952;2023-05-07T03:04:28;12.30;99.90
67974;DHT22;54756;51.140;6.952;2023-05-07T03:06:29;12.30;99.90
67974;DHT22;54756;51.140;6.952;2023-05-07T03:08:29;12.30;99.90
67974;DHT22;54756;51.140;6.952;2023-05-07T03:10:30;12.30;99.90
67974;DHT22;54756;51.140;6.952;2023-05-07T03:12:31;12.30;99.90
67974;DHT22;54756;51.140;6.952;2023-05-07T03:14:31;12.30;99.90
67974;DHT22;54756;51.140;6.952;2023-05-07T03:16:32;12.30;99.90
67974;DHT22;54756;51.140;6.952;2023-05-07T03:18:33;12.30;99.90
67974;DHT22;54756;51.140;6.952;2023-05-07T03:20:33;12.30;99.90
67974;DHT22;54756;51.140;6.952;2023-05-07T03:22:34;12.30;99.90
67974;DHT22;54756;51.140;6.952;2023-05-07T03:24:34;12.30;99.90
67974;DHT22;54756;51.140;6.952;2023-05-07T03:26:35;12.30;99.90
67974;DHT22;54756;51.140;6.952;2023-05-07T03:28:36;12.30;99.90
67974;DHT22;54756;51.140;6.952;2023-05-07T03:30:37;12.30;99.90
67974;DHT22;54756;51.140;6.952;2023-05-07T03:32:37;12.30;99.90
67974;DHT22;54756;51.140;6.952;2023-05-07T03:34:38;12.30;99.90
67974;DHT22;54756;51.140;6.952;2023-05-07T03:36:39;12.20;99.90
67974;DHT22;54756;51.140;6.952;2023-05-07T03:38:39;12.20;99.90
67974;DHT22;54756;51.140;6.952;2023-05-07T03:40:40;12.20;99.90
67974;DHT22;54756;51.140;6.952;2023-05-07T03:42:41;12.20;99.90
67974;DHT22;54756;51.140;6.952;2023-05-07T03:44:41;12.20;99.90
67974;DHT22;54756;51.140;6.952;2023-05-07T03:46:42;12.20;99.90
67974;DHT22;54756;51.140;6.952;2023-05-07T03:48:43;12.20;99.90
67974;DHT22;54756;51.140;6.952;2023-05-07T03:50:43;12.20;99.90
67974;DHT22;54756;51.140;6.952;2023-05-07T03:52:44;12.20;99.90
67974;DHT22;54756;51.140;6.952;2023-05-07T03:54:45;12.20;99.90
67974;DHT22;54756;51.140;6.952;2023-05-07T03:56:45;12.20;99.90
67974;DHT22;54756;51.140;6.952;2023-05-07T03:58:47;12.20;99.90
67974;DHT22;54756;51.140;6.952;2023-05-07T04:00:47;12.20;99.90
67974;DHT22;54756;51.140;6.952;2023-05-07T04:02:48;12.20;99.90
67974;DHT22;54756;51.140;6.952;2023-05-07T04:04:49;12.20;99.90
67974;DHT22;54756;51.140;6.952;2023-05-07T04:06:50;12.20;99.90
67974;DHT22;54756;51.140;6.952;2023-05-07T04:08:50;12.20;99.90
67974;DHT22;54756;51.140;6.952;2023-05-07T04:10:57;12.20;99.90
67974;DHT22;54756;51.140;6.952;2023-05-07T04:12:58;12.20;99.90
67974;DHT22;54756;51.140;6.952;2023-05-07T04:14:59;12.20;99.90
67974;DHT22;54756;51.140;6.952;2023-05-07T04:16:59;12.20;99.90
67974;DHT22;54756;51.140;6.952;2023-05-07T04:19:00;12.30;99.90
67974;DHT22;54756;51.140;6.952;2023-05-07T04:21:00;12.30;99.90
67974;DHT22;54756;51.140;6.952;2023-05-07T04:23:01;12.30;99.90
67974;DHT22;54756;51.140;6.952;2023-05-07T04:25:02;12.40;99.90
67974;DHT22;54756;51.140;6.952;2023-05-07T04:27:03;12.50;99.90
67974;DHT22;54756;51.140;6.952;2023-05-07T04:29:03;12.60;99.90
67974;DHT22;54756;51.140;6.952;2023-05-07T04:31:04;12.60;99.90
67974;DHT22;54756;51.140;6.952;2023-05-07T04:33:05;12.70;99.90
67974;DHT22;54756;51.140;6.952;2023-05-07T04:35:07;12.70;99.90
67974;DHT22;54756;51.140;6.952;2023-05-07T04:37:08;12.80;99.90
67974;DHT22;54756;51.140;6.952;2023-05-07T04:39:09;12.90;99.90
67974;DHT22;54756;51.140;6.952;2023-05-07T04:41:12;13.00;99.90
67974;DHT22;54756;51.140;6.952;2023-05-07T04:43:13;13.00;99.90
67974;DHT22;54756;51.140;6.952;2023-05-07T04:45:14;13.10;99.90
67974;DHT22;54756;51.140;6.952;2023-05-07T04:47:15;13.20;99.90
67974;DHT22;54756;51.140;6.952;2023-05-07T04:49:16;13.30;99.90
67974;DHT22;54756;51.140;6.952;2023-05-07T04:51:16;13.30;99.90
67974;DHT22;54756;51.140;6.952;2023-05-07T04:53:17;13.40;99.90
67974;DHT22;54756;51.140;6.952;2023-05-07T04:55:18;13.40;99.90
67974;DHT22;54756;51.140;6.952;2023-05-07T04:57:18;13.50;99.90
67974;DHT22;54756;51.140;6.952;2023-05-07T04:59:19;13.50;99.90
67974;DHT22;54756;51.140;6.952;2023-05-07T05:01:20;13.50;99.90
67974;DHT22;54756;51.140;6.952;2023-05-07T05:03:20;13.60;99.90
67974;DHT22;54756;51.140;6.952;2023-05-07T05:05:21;13.70;99.90
67974;DHT22;54756;51.140;6.952;2023-05-07T05:07:21;13.70;99.90
67974;DHT22;54756;51.140;6.952;2023-05-07T05:09:22;13.80;99.90
67974;DHT22;54756;51.140;6.952;2023-05-07T05:11:22;13.90;99.90
67974;DHT22;54756;51.140;6.952;2023-05-07T05:13:24;14.00;99.90
67974;DHT22;54756;51.140;6.952;2023-05-07T05:15:24;14.10;99.90
67974;DHT22;54756;51.140;6.952;2023-05-07T05:17:25;14.20;99.90
67974;DHT22;54756;51.140;6.952;2023-05-07T05:19:25;14.20;99.90
67974;DHT22;54756;51.140;6.952;2023-05-07T05:21:26;14.30;99.90
67974;DHT22;54756;51.140;6.952;2023-05-07T05:23:27;14.40;99.90
67974;DHT22;54756;51.140;6.952;2023-05-07T05:25:28;14.50;99.90
67974;DHT22;54756;51.140;6.952;2023-05-07T05:27:29;14.50;99.90
67974;DHT22;54756;51.140;6.952;2023-05-07T05:29:30;14.60;99.90
67974;DHT22;54756;51.140;6.952;2023-05-07T05:31:31;14.60;99.90
67974;DHT22;54756;51.140;6.952;2023-05-07T05:33:32;14.70;99.90
67974;DHT22;54756;51.140;6.952;2023-05-07T05:35:33;14.70;99.90
67974;DHT22;54756;51.140;6.952;2023-05-07T05:37:33;14.80;99.90
67974;DHT22;54756;51.140;6.952;2023-05-07T05:39:34;14.80;99.90
67974;DHT22;54756;51.140;6.952;2023-05-07T05:41:34;14.90;99.90
67974;DHT22;54756;51.140;6.952;2023-05-07T05:43:35;14.90;99.90
67974;DHT22;54756;51.140;6.952;2023-05-07T05:45:36;15.00;99.90
67974;DHT22;54756;51.140;6.952;2023-05-07T05:47:37;15.00;99.90
67974;DHT22;54756;51.140;6.952;2023-05-07T05:49:38;15.10;99.90
67974;DHT22;54756;51.140;6.952;2023-05-07T05:51:38;15.10;99.90
67974;DHT22;54756;51.140;6.952;2023-05-07T05:53:39;15.20;99.90
67974;DHT22;54756;51.140;6.952;2023-05-07T05:55:40;15.20;99.90
67974;DHT22;54756;51.140;6.952;2023-05-07T05:57:40;15.30;99.90
67974;DHT22;54756;51.140;6.952;2023-05-07T05:59:41;15.30;99.90
67974;DHT22;54756;51.140;6.952;2023-05-07T06:01:41;15.40;99.90
67974;DHT22;54756;51.140;6.952;2023-05-07T06:03:42;15.40;99.90
67974;DHT22;54756;51.140;6.952;2023-05-07T06:05:42;15.50;99.90
67974;DHT22;54756;51.140;6.952;2023-05-07T06:07:43;15.60;99.90
67974;DHT22;54756;51.140;6.952;2023-05-07T06:09:43;15.70;99.90
67974;DHT22;54756;51.140;6.952;2023-05-07T06:11:44;15.70;99.90
67974;DHT22;54756;51.140;6.952;2023-05-07T06:13:45;15.90;99.90
67974;DHT22;54756;51.140;6.952;2023-05-07T06:15:45;15.90;99.90
67974;DHT22;54756;51.140;6.952;2023-05-07T06:17:46;16.00;99.90
67974;DHT22;54756;51.140;6.952;2023-05-07T06:19:47;16.10;99.90
67974;DHT22;54756;51.140;6.952;2023-05-07T06:21:47;16.20;99.90
67974;DHT22;54756;51.140;6.952;2023-05-07T06:23:48;16.30;99.90
67974;DHT22;54756;51.140;6.952;2023-05-07T06:25:49;16.40;99.90
67974;DHT22;54756;51.140;6.952;2023-05-07T06:27:50;16.50;99.90
67974;DHT22;54756;51.140;6.952;2023-05-07T06:29:51;16.70;99.90
67974;DHT22;54756;51.140;6.952;2023-05-07T06:31:52;16.70;99.90
67974;DHT22;54756;51.140;6.952;2023-05-07T06:33:53;16.80;99.90
67974;DHT22;54756;51.140;6.952;2023-05-07T06:35:55;16.90;99.70
67974;DHT22;54756;51.140;6.952;2023-05-07T06:37:56;17.00;99.00
67974;DHT22;54756;51.140;6.952;2023-05-07T06:39:56;17.10;99.00
67974;DHT22;54756;51.140;6.952;2023-05-07T06:41:57;17.20;98.70
67974;DHT22;54756;51.140;6.952;2023-05-07T06:43:57;17.40;98.80
67974;DHT22;54756;51.140;6.952;2023-05-07T06:45:58;17.50;98.60
67974;DHT22;54756;51.140;6.952;2023-05-07T06:47:58;17.60;98.40
67974;DHT22;54756;51.140;6.952;2023-05-07T06:49:59;17.70;98.20
67974;DHT22;54756;51.140;6.952;2023-05-07T06:52:00;17.80;97.70
67974;DHT22;54756;51.140;6.952;2023-05-07T06:54:01;18.00;97.00
67974;DHT22;54756;51.140;6.952;2023-05-07T06:56:01;18.10;94.50
67974;DHT22;54756;51.140;6.952;2023-05-07T06:58:02;18.20;93.50
67974;DHT22;54756;51.140;6.952;2023-05-07T07:00:03;18.20;94.00
67974;DHT22;54756;51.140;6.952;2023-05-07T07:02:04;18.30;94.40
67974;DHT22;54756;51.140;6.952;2023-05-07T07:04:05;18.40;94.30
67974;DHT22;54756;51.140;6.952;2023-05-07T07:06:06;18.50;93.80
67974;DHT22;54756;51.140;6.952;2023-05-07T07:08:07;18.60;93.40
67974;DHT22;54756;51.140;6.952;2023-05-07T07:10:08;18.70;92.80
67974;DHT22;54756;51.140;6.952;2023-05-07T07:12:08;18.70;92.70
67974;DHT22;54756;51.140;6.952;2023-05-07T07:14:09;18.80;92.70
67974;DHT22;54756;51.140;6.952;2023-05-07T07:16:10;18.90;92.60
67974;DHT22;54756;51.140;6.952;2023-05-07T07:18:10;19.00;92.00
67974;DHT22;54756;51.140;6.952;2023-05-07T07:20:11;19.00;91.60
67974;DHT22;54756;51.140;6.952;2023-05-07T07:22:11;19.10;90.70
67974;DHT22;54756;51.140;6.952;2023-05-07T07:24:13;19.20;90.90
67974;DHT22;54756;51.140;6.952;2023-05-07T07:26:19;19.30;90.00
67974;DHT22;54756;51.140;6.952;2023-05-07T07:28:21;19.40;90.10
67974;DHT22;54756;51.140;6.952;2023-05-07T07:30:21;19.60;88.80
67974;DHT22;54756;51.140;6.952;2023-05-07T07:32:22;19.70;89.50
67974;DHT22;54756;51.140;6.952;2023-05-07T07:34:23;19.80;86.70
67974;DHT22;54756;51.140;6.952;2023-05-07T07:36:23;19.90;87.00
67974;DHT22;54756;51.140;6.952;2023-05-07T07:38:24;20.00;82.70
67974;DHT22;54756;51.140;6.952;2023-05-07T07:40:24;20.00;84.10
67974;DHT22;54756;51.140;6.952;2023-05-07T07:42:25;20.20;83.60
67974;DHT22;54756;51.140;6.952;2023-05-07T07:44:27;20.30;82.90
67974;DHT22;54756;51.140;6.952;2023-05-07T07:46:27;20.40;83.10
67974;DHT22;54756;51.140;6.952;2023-05-07T07:48:28;20.60;82.10
67974;DHT22;54756;51.140;6.952;2023-05-07T07:50:28;20.70;77.20
67974;DHT22;54756;51.140;6.952;2023-05-07T07:52:29;20.80;73.60
67974;DHT22;54756;51.140;6.952;2023-05-07T07:54:29;20.80;67.80
67974;DHT22;54756;51.140;6.952;2023-05-07T07:56:32;20.90;70.10
67974;DHT22;54756;51.140;6.952;2023-05-07T07:58:33;20.90;71.50
67974;DHT22;54756;51.140;6.952;2023-05-07T08:00:36;20.90;66.20
67974;DHT22;54756;51.140;6.952;2023-05-07T08:02:36;21.00;67.20
67974;DHT22;54756;51.140;6.952;2023-05-07T08:04:37;21.00;69.20
67974;DHT22;54756;51.140;6.952;2023-05-07T08:06:37;21.10;66.30
67974;DHT22;54756;51.140;6.952;2023-05-07T08:08:38;21.20;66.20
67974;DHT22;54756;51.140;6.952;2023-05-07T08:10:39;21.30;61.20
67974;DHT22;54756;51.140;6.952;2023-05-07T08:12:39;21.30;63.80
67974;DHT22;54756;51.140;6.952;2023-05-07T08:14:40;21.50;64.10
67974;DHT22;54756;51.140;6.952;2023-05-07T08:16:41;21.50;62.30
67974;DHT22;54756;51.140;6.952;2023-05-07T08:18:42;21.60;65.80
67974;DHT22;54756;51.140;6.952;2023-05-07T08:20:42;21.70;65.60
67974;DHT22;54756;51.140;6.952;2023-05-07T08:22:43;21.90;59.70
67974;DHT22;54756;51.140;6.952;2023-05-07T08:24:43;21.90;57.30
67974;DHT22;54756;51.140;6.952;2023-05-07T08:26:45;21.90;53.50
67974;DHT22;54756;51.140;6.952;2023-05-07T08:28:45;21.90;58.30
67974;DHT22;54756;51.140;6.952;2023-05-07T08:30:46;21.90;54.70
67974;DHT22;54756;51.140;6.952;2023-05-07T08:32:47;21.90;51.20
67974;DHT22;54756;51.140;6.952;2023-05-07T08:34:47;21.90;55.20
67974;DHT22;54756;51.140;6.952;2023-05-07T08:36:48;22.00;58.30
67974;DHT22;54756;51.140;6.952;2023-05-07T08:38:49;22.20;54.80
67974;DHT22;54756;51.140;6.952;2023-05-07T08:40:49;22.30;53.30
67974;DHT22;54756;51.140;6.952;2023-05-07T08:42:54;22.40;49.10
67974;DHT22;54756;51.140;6.952;2023-05-07T08:44:57;22.60;47.90
67974;DHT22;54756;51.140;6.952;2023-05-07T08:47:01;22.70;48.40
67974;DHT22;54756;51.140;6.952;2023-05-07T08:49:02;22.80;46.00
67974;DHT22;54756;51.140;6.952;2023-05-07T08:51:03;23.00;44.30
67974;DHT22;54756;51.140;6.952;2023-05-07T08:53:04;23.10;41.10
67974;DHT22;54756;51.140;6.952;2023-05-07T08:55:07;23.20;41.50
67974;DHT22;54756;51.140;6.952;2023-05-07T08:57:07;23.30;46.70
67974;DHT22;54756;51.140;6.952;2023-05-07T08:59:08;23.60;45.20
67974;DHT22;54756;51.140;6.952;2023-05-07T09:01:13;23.70;40.10
67974;DHT22;54756;51.140;6.952;2023-05-07T09:03:13;23.90;37.30
67974;DHT22;54756;51.140;6.952;2023-05-07T09:05:14;24.00;39.70
67974;DHT22;54756;51.140;6.952;2023-05-07T09:07:15;24.10;37.80
67974;DHT22;54756;51.140;6.952;2023-05-07T09:09:16;24.20;39.50
67974;DHT22;54756;51.140;6.952;2023-05-07T09:11:22;24.30;32.70
67974;DHT22;54756;51.140;6.952;2023-05-07T09:13:23;24.40;31.00
67974;DHT22;54756;51.140;6.952;2023-05-07T09:15:23;24.40;31.80
67974;DHT22;54756;51.140;6.952;2023-05-07T09:17:24;24.40;35.30
67974;DHT22;54756;51.140;6.952;2023-05-07T09:19:26;24.50;34.00
67974;DHT22;54756;51.140;6.952;2023-05-07T09:21:26;24.60;32.30
67974;DHT22;54756;51.140;6.952;2023-05-07T09:23:27;24.70;31.60
67974;DHT22;54756;51.140;6.952;2023-05-07T09:25:29;24.90;33.10
67974;DHT22;54756;51.140;6.952;2023-05-07T09:27:30;25.20;23.10
67974;DHT22;54756;51.140;6.952;2023-05-07T09:29:31;25.50;26.50
67974;DHT22;54756;51.140;6.952;2023-05-07T09:31:38;25.80;26.00
67974;DHT22;54756;51.140;6.952;2023-05-07T09:33:40;26.20;21.60
67974;DHT22;54756;51.140;6.952;2023-05-07T09:35:40;26.60;16.60
67974;DHT22;54756;51.140;6.952;2023-05-07T09:37:41;26.90;17.20
67974;DHT22;54756;51.140;6.952;2023-05-07T09:39:47;27.20;5.80
67974;DHT22;54756;51.140;6.952;2023-05-07T09:41:48;27.50;1.00
67974;DHT22;54756;51.140;6.952;2023-05-07T09:43:55;27.60;1.00
67974;DHT22;54756;51.140;6.952;2023-05-07T09:45:57;27.60;5.30
67974;DHT22;54756;51.140;6.952;2023-05-07T09:47:58;27.60;12.80
67974;DHT22;54756;51.140;6.952;2023-05-07T09:49:59;27.80;9.80
67974;DHT22;54756;51.140;6.952;2023-05-07T09:52:03;27.80;1.00
67974;DHT22;54756;51.140;6.952;2023-05-07T09:54:04;27.90;1.00
67974;DHT22;54756;51.140;6.952;2023-05-07T09:56:05;28.00;1.00
67974;DHT22;54756;51.140;6.952;2023-05-07T09:58:06;28.00;1.00
67974;DHT22;54756;51.140;6.952;2023-05-07T10:00:07;28.00;1.00
67974;DHT22;54756;51.140;6.952;2023-05-07T10:02:10;28.00;1.00
67974;DHT22;54756;51.140;6.952;2023-05-07T10:04:12;28.00;1.00
67974;DHT22;54756;51.140;6.952;2023-05-07T10:06:13;28.00;1.00
67974;DHT22;54756;51.140;6.952;2023-05-07T10:08:15;28.00;1.00
67974;DHT22;54756;51.140;6.952;2023-05-07T10:10:17;28.00;1.00
67974;DHT22;54756;51.140;6.952;2023-05-07T10:12:19;28.00;1.00
67974;DHT22;54756;51.140;6.952;2023-05-07T10:14:21;28.10;1.00
67974;DHT22;54756;51.140;6.952;2023-05-07T10:16:22;28.20;1.00
67974;DHT22;54756;51.140;6.952;2023-05-07T10:18:24;28.50;1.00
67974;DHT22;54756;51.140;6.952;2023-05-07T10:20:30;28.60;1.00
67974;DHT22;54756;51.140;6.952;2023-05-07T10:22:40;28.60;1.00
67974;DHT22;54756;51.140;6.952;2023-05-07T10:24:44;28.70;1.00
67974;DHT22;54756;51.140;6.952;2023-05-07T10:26:48;28.90;1.00
67974;DHT22;54756;51.140;6.952;2023-05-07T10:28:56;29.00;1.00
67974;DHT22;54756;51.140;6.952;2023-05-07T10:33:27;29.30;1.00
67974;DHT22;54756;51.140;6.952;2023-05-07T10:35:30;29.20;1.00
67974;DHT22;54756;51.140;6.952;2023-05-07T10:37:32;29.30;1.00
67974;DHT22;54756;51.140;6.952;2023-05-07T10:39:34;29.40;1.00
67974;DHT22;54756;51.140;6.952;2023-05-07T10:41:35;29.60;1.00
67974;DHT22;54756;51.140;6.952;2023-05-07T10:43:43;29.60;1.00
67974;DHT22;54756;51.140;6.952;2023-05-07T10:46:03;29.70;1.00
67974;DHT22;54756;51.140;6.952;2023-05-07T10:52:23;29.60;1.00
67974;DHT22;54756;51.140;6.952;2023-05-07T10:54:24;29.40;1.00
67974;DHT22;54756;51.140;6.952;2023-05-07T10:56:25;29.30;1.00
67974;DHT22;54756;51.140;6.952;2023-05-07T10:58:27;29.30;1.00
67974;DHT22;54756;51.140;6.952;2023-05-07T11:00:41;29.10;1.00
67974;DHT22;54756;51.140;6.952;2023-05-07T11:07:25;29.30;1.00
67974;DHT22;54756;51.140;6.952;2023-05-07T11:11:51;29.90;1.00
67974;DHT22;54756;51.140;6.952;2023-05-07T11:13:52;30.20;1.00
67974;DHT22;54756;51.140;6.952;2023-05-07T11:15:53;30.50;1.00
67974;DHT22;54756;51.140;6.952;2023-05-07T11:17:55;31.00;1.00
67974;DHT22;54756;51.140;6.952;2023-05-07T11:19:57;31.20;1.00
67974;DHT22;54756;51.140;6.952;2023-05-07T11:21:57;31.20;1.00
67974;DHT22;54756;51.140;6.952;2023-05-07T11:23:58;30.90;1.00
67974;DHT22;54756;51.140;6.952;2023-05-07T11:26:03;30.90;1.00
67974;DHT22;54756;51.140;6.952;2023-05-07T11:28:08;30.90;1.00
67974;DHT22;54756;51.140;6.952;2023-05-07T11:30:17;30.90;1.00
67974;DHT22;54756;51.140;6.952;2023-05-07T11:32:28;30.90;1.00
67974;DHT22;54756;51.140;6.952;2023-05-07T11:34:29;31.20;1.00
67974;DHT22;54756;51.140;6.952;2023-05-07T11:36:32;31.10;1.00
67974;DHT22;54756;51.140;6.952;2023-05-07T11:38:37;31.10;1.00
67974;DHT22;54756;51.140;6.952;2023-05-07T11:40:55;31.10;1.00
67974;DHT22;54756;51.140;6.952;2023-05-07T11:42:55;31.10;99.90
67974;DHT22;54756;51.140;6.952;2023-05-07T11:44:56;30.90;99.90
67974;DHT22;54756;51.140;6.952;2023-05-07T11:46:57;31.00;1.00
67974;DHT22;54756;51.140;6.952;2023-05-07T11:48:58;31.10;1.00
67974;DHT22;54756;51.140;6.952;2023-05-07T11:52:59;31.40;1.00
67974;DHT22;54756;51.140;6.952;2023-05-07T11:55:00;31.60;1.00
67974;DHT22;54756;51.140;6.952;2023-05-07T11:57:01;32.00;1.00
67974;DHT22;54756;51.140;6.952;2023-05-07T11:59:02;32.10;99.90
67974;DHT22;54756;51.140;6.952;2023-05-07T12:01:03;32.30;99.90
67974;DHT22;54756;51.140;6.952;2023-05-07T12:03:06;32.40;99.90
67974;DHT22;54756;51.140;6.952;2023-05-07T12:05:07;32.30;1.00
67974;DHT22;54756;51.140;6.952;2023-05-07T12:07:15;32.30;1.00
67974;DHT22;54756;51.140;6.952;2023-05-07T12:09:15;32.20;99.90
67974;DHT22;54756;51.140;6.952;2023-05-07T12:11:22;32.00;99.90
67974;DHT22;54756;51.140;6.952;2023-05-07T12:13:25;31.80;1.00
67974;DHT22;54756;51.140;6.952;2023-05-07T12:15:26;31.50;1.00
67974;DHT22;54756;51.140;6.952;2023-05-07T12:17:28;31.20;1.00
67974;DHT22;54756;51.140;6.952;2023-05-07T12:19:29;30.60;1.00
67974;DHT22;54756;51.140;6.952;2023-05-07T12:21:30;30.10;1.00
67974;DHT22;54756;51.140;6.952;2023-05-07T12:23:31;29.70;1.00
67974;DHT22;54756;51.140;6.952;2023-05-07T12:25:35;29.50;1.00
67974;DHT22;54756;51.140;6.952;2023-05-07T12:27:37;29.40;1.00
67974;DHT22;54756;51.140;6.952;2023-05-07T12:29:39;29.40;1.00
67974;DHT22;54756;51.140;6.952;2023-05-07T12:31:41;30.20;1.00
67974;DHT22;54756;51.140;6.952;2023-05-07T12:33:42;30.40;1.00
67974;DHT22;54756;51.140;6.952;2023-05-07T12:35:43;30.60;1.00
67974;DHT22;54756;51.140;6.952;2023-05-07T12:37:45;30.60;1.00
67974;DHT22;54756;51.140;6.952;2023-05-07T12:40:08;30.40;1.00
67974;DHT22;54756;51.140;6.952;2023-05-07T12:42:15;30.10;1.00
67974;DHT22;54756;51.140;6.952;2023-05-07T12:44:16;29.70;1.00
67974;DHT22;54756;51.140;6.952;2023-05-07T12:46:16;29.30;1.00
67974;DHT22;54756;51.140;6.952;2023-05-07T12:48:19;28.80;1.00
67974;DHT22;54756;51.140;6.952;2023-05-07T12:50:20;28.30;1.00
67974;DHT22;54756;51.140;6.952;2023-05-07T12:52:21;28.00;1.00
67974;DHT22;54756;51.140;6.952;2023-05-07T12:54:32;27.70;1.00
67974;DHT22;54756;51.140;6.952;2023-05-07T12:56:35;27.30;1.00
67974;DHT22;54756;51.140;6.952;2023-05-07T12:58:36;27.00;1.00
67974;DHT22;54756;51.140;6.952;2023-05-07T13:00:37;26.80;1.00
67974;DHT22;54756;51.140;6.952;2023-05-07T13:02:40;26.60;1.00
67974;DHT22;54756;51.140;6.952;2023-05-07T13:04:41;26.40;1.00
67974;DHT22;54756;51.140;6.952;2023-05-07T13:06:41;26.20;1.00